sensor_id;sensor_type;location;lat;lon;timestamp;P1;durP1;ratioP1;P2;durP2;ratioP2
80836;SDS011;70251;60.008;30.404;2024-01-16T00:01:59;12.02;;;3.47;;
80836;SDS011;70251;60.008;30.404;2024-01-16T00:04:25;12.97;;;3.37;;
80836;SDS011;70251;60.008;30.404;2024-01-16T00:06:52;10.88;;;4.25;;
80836;SDS011;70251;60.008;30.404;2024-01-16T00:09:18;10.27;;;3.33;;
80836;SDS011;70251;60.008;30.404;2024-01-16T00:11:43;14.90;;;4.05;;
80836;SDS011;70251;60.008;30.404;2024-01-16T00:14:09;11.50;;;2.97;;
80836;SDS011;70251;60.008;30.404;2024-01-16T00:16:56;15.98;;;4.82;;
80836;SDS011;70251;60.008;30.404;2024-01-16T00:19:21;12.35;;;4.03;;
80836;SDS011;70251;60.008;30.404;2024-01-16T00:21:46;13.43;;;4.20;;
80836;SDS011;70251;60.008;30.404;2024-01-16T00:24:12;12.60;;;3.85;;
80836;SDS011;70251;60.008;30.404;2024-01-16T00:26:41;11.70;;;3.83;;
80836;SDS011;70251;60.008;30.404;2024-01-16T00:29:07;13.25;;;3.72;;
80836;SDS011;70251;60.008;30.404;2024-01-16T00:31:34;14.70;;;4.38;;
80836;SDS011;70251;60.008;30.404;2024-01-16T00:34:00;13.85;;;4.00;;
80836;SDS011;70251;60.008;30.404;2024-01-16T00:36:26;11.87;;;3.93;;
80836;SDS011;70251;60.008;30.404;2024-01-16T00:38:51;11.50;;;3.72;;
80836;SDS011;70251;60.008;30.404;2024-01-16T00:41:17;12.17;;;3.93;;
80836;SDS011;70251;60.008;30.404;2024-01-16T00:43:43;13.07;;;3.97;;
80836;SDS011;70251;60.008;30.404;2024-01-16T00:46:08;14.18;;;4.07;;
80836;SDS011;70251;60.008;30.404;2024-01-16T00:48:34;10.73;;;3.83;;
80836;SDS011;70251;60.008;30.404;2024-01-16T00:50:59;14.27;;;3.90;;
80836;SDS011;70251;60.008;30.404;2024-01-16T00:53:28;13.23;;;3.90;;
80836;SDS011;70251;60.008;30.404;2024-01-16T00:55:53;12.10;;;3.72;;
80836;SDS011;70251;60.008;30.404;2024-01-16T00:58:21;12.85;;;4.22;;
80836;SDS011;70251;60.008;30.404;2024-01-16T01:00:47;11.77;;;4.00;;
80836;SDS011;70251;60.008;30.404;2024-01-16T01:03:13;16.00;;;4.40;;
80836;SDS011;70251;60.008;30.404;2024-01-16T01:05:38;14.60;;;5.05;;
80836;SDS011;70251;60.008;30.404;2024-01-16T01:08:04;19.27;;;5.10;;
80836;SDS011;70251;60.008;30.404;2024-01-16T01:10:30;14.80;;;4.75;;
80836;SDS011;70251;60.008;30.404;2024-01-16T01:12:55;17.07;;;4.90;;
80836;SDS011;70251;60.008;30.404;2024-01-16T01:15:21;17.00;;;5.85;;
80836;SDS011;70251;60.008;30.404;2024-01-16T01:17:50;13.97;;;5.17;;
80836;SDS011;70251;60.008;30.404;2024-01-16T01:20:17;14.75;;;5.22;;
80836;SDS011;70251;60.008;30.404;2024-01-16T01:22:43;14.02;;;5.20;;
80836;SDS011;70251;60.008;30.404;2024-01-16T01:25:09;13.15;;;4.55;;
80836;SDS011;70251;60.008;30.404;2024-01-16T01:27:36;14.37;;;5.00;;
80836;SDS011;70251;60.008;30.404;2024-01-16T01:30:01;11.32;;;4.18;;
80836;SDS011;70251;60.008;30.404;2024-01-16T01:32:30;13.48;;;4.60;;
80836;SDS011;70251;60.008;30.404;2024-01-16T01:34:55;15.03;;;4.90;;
80836;SDS011;70251;60.008;30.404;2024-01-16T01:37:21;12.00;;;4.57;;
80836;SDS011;70251;60.008;30.404;2024-01-16T01:39:51;15.18;;;5.13;;
80836;SDS011;70251;60.008;30.404;2024-01-16T01:42:17;17.47;;;4.77;;
80836;SDS011;70251;60.008;30.404;2024-01-16T01:44:43;13.88;;;4.38;;
80836;SDS011;70251;60.008;30.404;2024-01-16T01:47:08;13.13;;;4.67;;
80836;SDS011;70251;60.008;30.404;2024-01-16T01:49:34;10.43;;;3.95;;
80836;SDS011;70251;60.008;30.404;2024-01-16T01:52:01;12.25;;;4.00;;
80836;SDS011;70251;60.008;30.404;2024-01-16T01:54:28;13.80;;;4.30;;
80836;SDS011;70251;60.008;30.404;2024-01-16T01:56:56;15.52;;;4.40;;
80836;SDS011;70251;60.008;30.404;2024-01-16T01:59:22;12.90;;;3.97;;
80836;SDS011;70251;60.008;30.404;2024-01-16T02:01:49;14.52;;;3.75;;
80836;SDS011;70251;60.008;30.404;2024-01-16T02:04:21;12.73;;;3.90;;
80836;SDS011;70251;60.008;30.404;2024-01-16T02:06:48;14.57;;;4.27;;
80836;SDS011;70251;60.008;30.404;2024-01-16T02:09:14;12.68;;;4.15;;
80836;SDS011;70251;60.008;30.404;2024-01-16T02:11:40;11.73;;;3.78;;
80836;SDS011;70251;60.008;30.404;2024-01-16T02:14:09;12.35;;;3.97;;
80836;SDS011;70251;60.008;30.404;2024-01-16T02:16:37;14.23;;;4.68;;
80836;SDS011;70251;60.008;30.404;2024-01-16T02:19:05;9.43;;;3.37;;
80836;SDS011;70251;60.008;30.404;2024-01-16T02:21:36;12.27;;;3.50;;
80836;SDS011;70251;60.008;30.404;2024-01-16T02:24:05;9.70;;;3.28;;
80836;SDS011;70251;60.008;30.404;2024-01-16T02:26:32;11.32;;;3.42;;
80836;SDS011;70251;60.008;30.404;2024-01-16T02:29:03;10.82;;;3.35;;
80836;SDS011;70251;60.008;30.404;2024-01-16T02:31:31;12.67;;;3.50;;
80836;SDS011;70251;60.008;30.404;2024-01-16T02:33:57;13.10;;;4.13;;
80836;SDS011;70251;60.008;30.404;2024-01-16T02:36:23;11.95;;;3.95;;
80836;SDS011;70251;60.008;30.404;2024-01-16T02:38:50;10.82;;;3.40;;
80836;SDS011;70251;60.008;30.404;2024-01-16T02:41:15;13.33;;;4.00;;
80836;SDS011;70251;60.008;30.404;2024-01-16T02:43:42;11.68;;;3.67;;
80836;SDS011;70251;60.008;30.404;2024-01-16T02:46:08;11.73;;;3.50;;
80836;SDS011;70251;60.008;30.404;2024-01-16T02:48:34;12.45;;;3.90;;
80836;SDS011;70251;60.008;30.404;2024-01-16T02:51:00;11.53;;;4.07;;
80836;SDS011;70251;60.008;30.404;2024-01-16T02:53:26;10.85;;;3.42;;
80836;SDS011;70251;60.008;30.404;2024-01-16T02:55:54;8.25;;;2.78;;
80836;SDS011;70251;60.008;30.404;2024-01-16T02:58:20;12.10;;;3.85;;
80836;SDS011;70251;60.008;30.404;2024-01-16T03:00:46;12.63;;;3.97;;
80836;SDS011;70251;60.008;30.404;2024-01-16T03:03:12;9.90;;;3.25;;
80836;SDS011;70251;60.008;30.404;2024-01-16T03:05:38;13.30;;;3.53;;
80836;SDS011;70251;60.008;30.404;2024-01-16T03:08:04;10.53;;;3.00;;
80836;SDS011;70251;60.008;30.404;2024-01-16T03:10:30;9.77;;;3.10;;
80836;SDS011;70251;60.008;30.404;2024-01-16T03:12:56;10.23;;;2.55;;
80836;SDS011;70251;60.008;30.404;2024-01-16T03:15:22;10.87;;;3.70;;
80836;SDS011;70251;60.008;30.404;2024-01-16T03:17:48;7.82;;;2.17;;
80836;SDS011;70251;60.008;30.404;2024-01-16T03:20:14;11.77;;;3.53;;
80836;SDS011;70251;60.008;30.404;2024-01-16T03:22:41;11.73;;;3.40;;
80836;SDS011;70251;60.008;30.404;2024-01-16T03:25:08;12.07;;;3.22;;
80836;SDS011;70251;60.008;30.404;2024-01-16T03:27:34;9.05;;;3.03;;
80836;SDS011;70251;60.008;30.404;2024-01-16T03:30:01;10.33;;;3.13;;
80836;SDS011;70251;60.008;30.404;2024-01-16T03:32:30;10.32;;;3.05;;
80836;SDS011;70251;60.008;30.404;2024-01-16T03:34:56;10.00;;;3.40;;
80836;SDS011;70251;60.008;30.404;2024-01-16T03:37:21;8.68;;;2.65;;
80836;SDS011;70251;60.008;30.404;2024-01-16T03:39:47;10.23;;;3.40;;
80836;SDS011;70251;60.008;30.404;2024-01-16T03:42:13;10.57;;;3.13;;
80836;SDS011;70251;60.008;30.404;2024-01-16T03:44:39;9.77;;;2.93;;
80836;SDS011;70251;60.008;30.404;2024-01-16T03:47:05;14.48;;;3.55;;
80836;SDS011;70251;60.008;30.404;2024-01-16T03:49:32;10.95;;;3.83;;
80836;SDS011;70251;60.008;30.404;2024-01-16T03:51:57;10.07;;;3.37;;
80836;SDS011;70251;60.008;30.404;2024-01-16T03:54:24;10.60;;;2.67;;
80836;SDS011;70251;60.008;30.404;2024-01-16T03:56:49;12.80;;;3.83;;
80836;SDS011;70251;60.008;30.404;2024-01-16T03:59:16;9.82;;;3.30;;
80836;SDS011;70251;60.008;30.404;2024-01-16T04:01:41;10.00;;;2.83;;
80836;SDS011;70251;60.008;30.404;2024-01-16T04:04:09;9.17;;;2.77;;
80836;SDS011;70251;60.008;30.404;2024-01-16T04:06:36;11.70;;;3.95;;
80836;SDS011;70251;60.008;30.404;2024-01-16T04:09:02;14.55;;;4.18;;
80836;SDS011;70251;60.008;30.404;2024-01-16T04:11:28;10.82;;;3.30;;
80836;SDS011;70251;60.008;30.404;2024-01-16T04:13:55;11.17;;;3.90;;
80836;SDS011;70251;60.008;30.404;2024-01-16T04:16:21;12.85;;;3.58;;
80836;SDS011;70251;60.008;30.404;2024-01-16T04:18:46;10.90;;;3.72;;
80836;SDS011;70251;60.008;30.404;2024-01-16T04:21:12;11.40;;;3.60;;
80836;SDS011;70251;60.008;30.404;2024-01-16T04:23:38;12.13;;;4.00;;
80836;SDS011;70251;60.008;30.404;2024-01-16T04:26:03;10.13;;;3.43;;
80836;SDS011;70251;60.008;30.404;2024-01-16T04:28:29;11.15;;;3.55;;
80836;SDS011;70251;60.008;30.404;2024-01-16T04:30:55;11.17;;;3.77;;
80836;SDS011;70251;60.008;30.404;2024-01-16T04:33:20;10.50;;;3.50;;
80836;SDS011;70251;60.008;30.404;2024-01-16T04:35:47;9.32;;;2.95;;
80836;SDS011;70251;60.008;30.404;2024-01-16T04:38:12;9.45;;;3.10;;
80836;SDS011;70251;60.008;30.404;2024-01-16T04:40:38;10.47;;;3.70;;
80836;SDS011;70251;60.008;30.404;2024-01-16T04:43:04;10.13;;;3.13;;
80836;SDS011;70251;60.008;30.404;2024-01-16T04:45:29;9.05;;;3.20;;
80836;SDS011;70251;60.008;30.404;2024-01-16T04:47:55;9.60;;;3.37;;
80836;SDS011;70251;60.008;30.404;2024-01-16T04:50:20;10.93;;;3.30;;
80836;SDS011;70251;60.008;30.404;2024-01-16T04:52:46;9.43;;;2.97;;
80836;SDS011;70251;60.008;30.404;2024-01-16T04:55:12;11.98;;;3.78;;
80836;SDS011;70251;60.008;30.404;2024-01-16T04:57:38;11.37;;;3.50;;
80836;SDS011;70251;60.008;30.404;2024-01-16T05:00:03;12.57;;;4.05;;
80836;SDS011;70251;60.008;30.404;2024-01-16T05:02:33;10.38;;;3.58;;
80836;SDS011;70251;60.008;30.404;2024-01-16T05:04:59;11.90;;;3.37;;
80836;SDS011;70251;60.008;30.404;2024-01-16T05:07:25;9.75;;;3.40;;
80836;SDS011;70251;60.008;30.404;2024-01-16T05:09:52;9.40;;;3.05;;
80836;SDS011;70251;60.008;30.404;2024-01-16T05:12:18;9.93;;;3.08;;
80836;SDS011;70251;60.008;30.404;2024-01-16T05:14:44;8.43;;;2.37;;
80836;SDS011;70251;60.008;30.404;2024-01-16T05:17:10;9.63;;;2.92;;
80836;SDS011;70251;60.008;30.404;2024-01-16T05:19:35;10.80;;;3.60;;
80836;SDS011;70251;60.008;30.404;2024-01-16T05:22:02;10.82;;;3.13;;
80836;SDS011;70251;60.008;30.404;2024-01-16T05:24:28;9.82;;;3.35;;
80836;SDS011;70251;60.008;30.404;2024-01-16T05:26:54;7.47;;;2.33;;
80836;SDS011;70251;60.008;30.404;2024-01-16T05:29:20;9.50;;;3.25;;
80836;SDS011;70251;60.008;30.404;2024-01-16T05:31:47;9.05;;;3.10;;
80836;SDS011;70251;60.008;30.404;2024-01-16T05:34:13;8.90;;;2.70;;
80836;SDS011;70251;60.008;30.404;2024-01-16T05:36:39;10.48;;;3.20;;
80836;SDS011;70251;60.008;30.404;2024-01-16T05:39:10;9.47;;;2.63;;
80836;SDS011;70251;60.008;30.404;2024-01-16T05:41:37;10.15;;;3.28;;
80836;SDS011;70251;60.008;30.404;2024-01-16T05:44:03;10.85;;;2.95;;
80836;SDS011;70251;60.008;30.404;2024-01-16T05:46:29;7.97;;;2.57;;
80836;SDS011;70251;60.008;30.404;2024-01-16T05:48:56;12.75;;;3.58;;
80836;SDS011;70251;60.008;30.404;2024-01-16T05:51:23;9.82;;;3.10;;
80836;SDS011;70251;60.008;30.404;2024-01-16T05:53:50;9.25;;;2.83;;
80836;SDS011;70251;60.008;30.404;2024-01-16T05:56:16;9.67;;;3.37;;
80836;SDS011;70251;60.008;30.404;2024-01-16T05:58:41;8.57;;;3.05;;
80836;SDS011;70251;60.008;30.404;2024-01-16T06:01:07;15.07;;;3.77;;
80836;SDS011;70251;60.008;30.404;2024-01-16T06:03:33;8.30;;;2.57;;
80836;SDS011;70251;60.008;30.404;2024-01-16T06:06:00;12.65;;;3.25;;
80836;SDS011;70251;60.008;30.404;2024-01-16T06:08:25;9.55;;;2.90;;
80836;SDS011;70251;60.008;30.404;2024-01-16T06:10:51;9.23;;;2.63;;
80836;SDS011;70251;60.008;30.404;2024-01-16T06:13:18;10.82;;;3.25;;
80836;SDS011;70251;60.008;30.404;2024-01-16T06:15:43;10.55;;;3.20;;
80836;SDS011;70251;60.008;30.404;2024-01-16T06:18:10;9.40;;;3.00;;
80836;SDS011;70251;60.008;30.404;2024-01-16T06:20:35;9.60;;;3.03;;
80836;SDS011;70251;60.008;30.404;2024-01-16T06:23:01;10.20;;;3.30;;
80836;SDS011;70251;60.008;30.404;2024-01-16T06:25:27;7.63;;;2.47;;
80836;SDS011;70251;60.008;30.404;2024-01-16T06:27:52;10.47;;;3.40;;
80836;SDS011;70251;60.008;30.404;2024-01-16T06:30:18;9.30;;;2.85;;
80836;SDS011;70251;60.008;30.404;2024-01-16T06:32:45;8.98;;;3.00;;
80836;SDS011;70251;60.008;30.404;2024-01-16T06:35:15;10.63;;;3.67;;
80836;SDS011;70251;60.008;30.404;2024-01-16T06:37:41;10.05;;;3.30;;
80836;SDS011;70251;60.008;30.404;2024-01-16T06:40:07;9.70;;;3.40;;
80836;SDS011;70251;60.008;30.404;2024-01-16T06:42:34;13.30;;;4.40;;
80836;SDS011;70251;60.008;30.404;2024-01-16T06:45:01;11.32;;;3.53;;
80836;SDS011;70251;60.008;30.404;2024-01-16T06:47:29;8.70;;;2.83;;
80836;SDS011;70251;60.008;30.404;2024-01-16T06:49:55;12.05;;;3.63;;
80836;SDS011;70251;60.008;30.404;2024-01-16T06:52:20;10.57;;;3.23;;
80836;SDS011;70251;60.008;30.404;2024-01-16T06:54:46;9.63;;;2.83;;
80836;SDS011;70251;60.008;30.404;2024-01-16T06:57:11;9.53;;;2.90;;
80836;SDS011;70251;60.008;30.404;2024-01-16T06:59:39;9.57;;;3.20;;
80836;SDS011;70251;60.008;30.404;2024-01-16T07:02:05;9.88;;;3.33;;
80836;SDS011;70251;60.008;30.404;2024-01-16T07:04:31;11.77;;;3.63;;
80836;SDS011;70251;60.008;30.404;2024-01-16T07:06:58;7.32;;;2.38;;
80836;SDS011;70251;60.008;30.404;2024-01-16T07:09:25;9.27;;;2.70;;
80836;SDS011;70251;60.008;30.404;2024-01-16T07:11:52;10.43;;;2.95;;
80836;SDS011;70251;60.008;30.404;2024-01-16T07:14:19;11.82;;;2.78;;
80836;SDS011;70251;60.008;30.404;2024-01-16T07:16:45;11.67;;;3.30;;
80836;SDS011;70251;60.008;30.404;2024-01-16T07:19:11;10.02;;;3.00;;
80836;SDS011;70251;60.008;30.404;2024-01-16T07:21:39;10.05;;;3.03;;
80836;SDS011;70251;60.008;30.404;2024-01-16T07:24:05;10.50;;;2.93;;
80836;SDS011;70251;60.008;30.404;2024-01-16T07:26:30;9.43;;;2.70;;
80836;SDS011;70251;60.008;30.404;2024-01-16T07:28:56;9.73;;;2.70;;
80836;SDS011;70251;60.008;30.404;2024-01-16T07:31:22;10.00;;;2.92;;
80836;SDS011;70251;60.008;30.404;2024-01-16T07:33:48;12.98;;;3.53;;
80836;SDS011;70251;60.008;30.404;2024-01-16T07:36:14;11.23;;;2.77;;
80836;SDS011;70251;60.008;30.404;2024-01-16T07:38:40;7.85;;;2.35;;
80836;SDS011;70251;60.008;30.404;2024-01-16T07:41:05;8.10;;;2.33;;
80836;SDS011;70251;60.008;30.404;2024-01-16T07:43:31;9.60;;;2.65;;
80836;SDS011;70251;60.008;30.404;2024-01-16T07:45:57;9.95;;;3.00;;
80836;SDS011;70251;60.008;30.404;2024-01-16T07:48:23;7.10;;;1.73;;
80836;SDS011;70251;60.008;30.404;2024-01-16T07:50:49;9.83;;;2.83;;
80836;SDS011;70251;60.008;30.404;2024-01-16T07:53:15;10.45;;;2.47;;
80836;SDS011;70251;60.008;30.404;2024-01-16T07:55:43;11.00;;;2.60;;
80836;SDS011;70251;60.008;30.404;2024-01-16T07:58:12;9.67;;;2.87;;
80836;SDS011;70251;60.008;30.404;2024-01-16T08:00:38;9.30;;;2.63;;
80836;SDS011;70251;60.008;30.404;2024-01-16T08:03:06;8.68;;;2.58;;
80836;SDS011;70251;60.008;30.404;2024-01-16T08:05:33;9.10;;;1.98;;
80836;SDS011;70251;60.008;30.404;2024-01-16T08:07:59;8.00;;;2.33;;
80836;SDS011;70251;60.008;30.404;2024-01-16T08:10:24;9.63;;;2.67;;
80836;SDS011;70251;60.008;30.404;2024-01-16T08:12:50;10.90;;;3.17;;
80836;SDS011;70251;60.008;30.404;2024-01-16T08:15:16;12.67;;;3.80;;
80836;SDS011;70251;60.008;30.404;2024-01-16T08:17:41;9.87;;;2.43;;
80836;SDS011;70251;60.008;30.404;2024-01-16T08:20:08;14.00;;;3.17;;
80836;SDS011;70251;60.008;30.404;2024-01-16T08:22:38;11.65;;;2.47;;
80836;SDS011;70251;60.008;30.404;2024-01-16T08:25:03;11.47;;;3.30;;
80836;SDS011;70251;60.008;30.404;2024-01-16T08:27:33;11.88;;;3.13;;
80836;SDS011;70251;60.008;30.404;2024-01-16T08:30:02;9.20;;;2.83;;
80836;SDS011;70251;60.008;30.404;2024-01-16T08:32:29;7.18;;;2.20;;
80836;SDS011;70251;60.008;30.404;2024-01-16T08:34:56;13.23;;;2.60;;
80836;SDS011;70251;60.008;30.404;2024-01-16T08:37:22;10.17;;;2.63;;
80836;SDS011;70251;60.008;30.404;2024-01-16T08:39:47;14.00;;;3.87;;
80836;SDS011;70251;60.008;30.404;2024-01-16T08:42:13;12.27;;;4.13;;
80836;SDS011;70251;60.008;30.404;2024-01-16T08:44:38;12.00;;;3.87;;
80836;SDS011;70251;60.008;30.404;2024-01-16T08:47:04;8.70;;;2.30;;
80836;SDS011;70251;60.008;30.404;2024-01-16T08:49:31;11.77;;;3.15;;
80836;SDS011;70251;60.008;30.404;2024-01-16T08:51:58;11.27;;;3.03;;
80836;SDS011;70251;60.008;30.404;2024-01-16T08:54:24;8.07;;;2.58;;
80836;SDS011;70251;60.008;30.404;2024-01-16T08:56:51;10.50;;;2.55;;
80836;SDS011;70251;60.008;30.404;2024-01-16T08:59:17;8.38;;;2.50;;
80836;SDS011;70251;60.008;30.404;2024-01-16T09:01:43;9.13;;;2.53;;
80836;SDS011;70251;60.008;30.404;2024-01-16T09:04:09;7.60;;;2.15;;
80836;SDS011;70251;60.008;30.404;2024-01-16T09:06:34;10.07;;;2.60;;
80836;SDS011;70251;60.008;30.404;2024-01-16T09:09:00;11.30;;;2.85;;
80836;SDS011;70251;60.008;30.404;2024-01-16T09:11:26;12.13;;;3.17;;
80836;SDS011;70251;60.008;30.404;2024-01-16T09:13:51;8.32;;;2.45;;
80836;SDS011;70251;60.008;30.404;2024-01-16T09:16:17;9.27;;;3.03;;
80836;SDS011;70251;60.008;30.404;2024-01-16T09:18:43;8.87;;;2.70;;
80836;SDS011;70251;60.008;30.404;2024-01-16T09:21:09;8.70;;;2.70;;
80836;SDS011;70251;60.008;30.404;2024-01-16T09:23:34;10.80;;;3.00;;
80836;SDS011;70251;60.008;30.404;2024-01-16T09:26:00;7.77;;;2.00;;
80836;SDS011;70251;60.008;30.404;2024-01-16T09:28:26;7.10;;;2.40;;
80836;SDS011;70251;60.008;30.404;2024-01-16T09:30:54;8.77;;;2.63;;
80836;SDS011;70251;60.008;30.404;2024-01-16T09:33:22;13.15;;;3.45;;
80836;SDS011;70251;60.008;30.404;2024-01-16T09:35:51;10.55;;;3.08;;
80836;SDS011;70251;60.008;30.404;2024-01-16T09:38:17;10.40;;;2.65;;
80836;SDS011;70251;60.008;30.404;2024-01-16T09:40:43;10.23;;;2.87;;
80836;SDS011;70251;60.008;30.404;2024-01-16T09:43:09;7.88;;;2.40;;
80836;SDS011;70251;60.008;30.404;2024-01-16T09:45:37;7.13;;;2.03;;
80836;SDS011;70251;60.008;30.404;2024-01-16T09:48:03;8.73;;;2.47;;
80836;SDS011;70251;60.008;30.404;2024-01-16T09:50:30;11.00;;;2.50;;
80836;SDS011;70251;60.008;30.404;2024-01-16T09:52:56;7.85;;;2.15;;
80836;SDS011;70251;60.008;30.404;2024-01-16T09:55:23;8.80;;;2.75;;
80836;SDS011;70251;60.008;30.404;2024-01-16T09:57:51;7.83;;;2.03;;
80836;SDS011;70251;60.008;30.404;2024-01-16T10:00:17;10.37;;;2.60;;
80836;SDS011;70251;60.008;30.404;2024-01-16T10:02:43;10.52;;;2.72;;
80836;SDS011;70251;60.008;30.404;2024-01-16T10:05:12;10.60;;;2.80;;
80836;SDS011;70251;60.008;30.404;2024-01-16T10:07:39;8.30;;;2.42;;
80836;SDS011;70251;60.008;30.404;2024-01-16T10:10:06;8.93;;;2.30;;
80836;SDS011;70251;60.008;30.404;2024-01-16T10:12:36;9.98;;;2.78;;
80836;SDS011;70251;60.008;30.404;2024-01-16T10:15:04;9.30;;;2.38;;
80836;SDS011;70251;60.008;30.404;2024-01-16T10:17:40;10.40;;;2.57;;
80836;SDS011;70251;60.008;30.404;2024-01-16T10:20:10;10.00;;;2.42;;
80836;SDS011;70251;60.008;30.404;2024-01-16T10:23:03;9.40;;;2.65;;
80836;SDS011;70251;60.008;30.404;2024-01-16T10:25:31;8.40;;;2.15;;
80836;SDS011;70251;60.008;30.404;2024-01-16T10:28:03;8.93;;;2.60;;
80836;SDS011;70251;60.008;30.404;2024-01-16T10:30:30;8.68;;;2.33;;
80836;SDS011;70251;60.008;30.404;2024-01-16T10:33:00;10.60;;;2.70;;
80836;SDS011;70251;60.008;30.404;2024-01-16T10:35:39;13.37;;;2.90;;
80836;SDS011;70251;60.008;30.404;2024-01-16T10:38:07;10.13;;;2.63;;
80836;SDS011;70251;60.008;30.404;2024-01-16T10:40:32;8.52;;;2.63;;
80836;SDS011;70251;60.008;30.404;2024-01-16T10:43:05;10.17;;;3.20;;
80836;SDS011;70251;60.008;30.404;2024-01-16T10:45:32;8.52;;;2.67;;
80836;SDS011;70251;60.008;30.404;2024-01-16T10:48:05;9.43;;;2.60;;
80836;SDS011;70251;60.008;30.404;2024-01-16T10:50:33;8.55;;;2.63;;
80836;SDS011;70251;60.008;30.404;2024-01-16T10:52:59;7.38;;;2.20;;
80836;SDS011;70251;60.008;30.404;2024-01-16T10:55:28;9.77;;;2.67;;
80836;SDS011;70251;60.008;30.404;2024-01-16T10:57:55;7.82;;;2.30;;
80836;SDS011;70251;60.008;30.404;2024-01-16T11:00:22;11.68;;;3.03;;
80836;SDS011;70251;60.008;30.404;2024-01-16T11:03:00;9.02;;;2.58;;
80836;SDS011;70251;60.008;30.404;2024-01-16T11:05:33;9.90;;;2.85;;
80836;SDS011;70251;60.008;30.404;2024-01-16T11:07:59;9.90;;;3.03;;
80836;SDS011;70251;60.008;30.404;2024-01-16T11:10:31;7.90;;;2.03;;
80836;SDS011;70251;60.008;30.404;2024-01-16T11:13:01;10.15;;;2.85;;
80836;SDS011;70251;60.008;30.404;2024-01-16T11:15:30;11.70;;;2.97;;
80836;SDS011;70251;60.008;30.404;2024-01-16T11:17:58;10.40;;;2.47;;
80836;SDS011;70251;60.008;30.404;2024-01-16T11:20:25;9.83;;;2.50;;
80836;SDS011;70251;60.008;30.404;2024-01-16T11:22:52;10.13;;;2.97;;
80836;SDS011;70251;60.008;30.404;2024-01-16T11:25:33;9.73;;;2.30;;
80836;SDS011;70251;60.008;30.404;2024-01-16T11:28:09;10.55;;;3.15;;
80836;SDS011;70251;60.008;30.404;2024-01-16T11:30:36;10.02;;;2.33;;
80836;SDS011;70251;60.008;30.404;2024-01-16T11:33:02;11.37;;;3.10;;
80836;SDS011;70251;60.008;30.404;2024-01-16T11:35:32;10.05;;;3.03;;
80836;SDS011;70251;60.008;30.404;2024-01-16T11:38:11;10.60;;;2.28;;
80836;SDS011;70251;60.008;30.404;2024-01-16T11:40:41;8.85;;;2.50;;
80836;SDS011;70251;60.008;30.404;2024-01-16T11:46:06;10.07;;;3.10;;
80836;SDS011;70251;60.008;30.404;2024-01-16T11:48:33;10.75;;;2.95;;
80836;SDS011;70251;60.008;30.404;2024-01-16T11:50:59;9.55;;;2.15;;
80836;SDS011;70251;60.008;30.404;2024-01-16T11:53:38;17.73;;;4.95;;
80836;SDS011;70251;60.008;30.404;2024-01-16T12:01:29;9.98;;;3.03;;
80836;SDS011;70251;60.008;30.404;2024-01-16T12:04:05;9.05;;;2.15;;
80836;SDS011;70251;60.008;30.404;2024-01-16T12:06:31;7.72;;;2.50;;
80836;SDS011;70251;60.008;30.404;2024-01-16T12:09:10;10.30;;;3.15;;
80836;SDS011;70251;60.008;30.404;2024-01-16T12:11:37;10.27;;;3.23;;
80836;SDS011;70251;60.008;30.404;2024-01-16T12:14:02;10.93;;;2.65;;
80836;SDS011;70251;60.008;30.404;2024-01-16T12:16:29;11.07;;;3.03;;
80836;SDS011;70251;60.008;30.404;2024-01-16T12:19:07;10.05;;;2.75;;
80836;SDS011;70251;60.008;30.404;2024-01-16T12:21:54;12.32;;;2.70;;
80836;SDS011;70251;60.008;30.404;2024-01-16T12:24:19;7.27;;;2.30;;
80836;SDS011;70251;60.008;30.404;2024-01-16T12:26:45;7.72;;;2.17;;
80836;SDS011;70251;60.008;30.404;2024-01-16T12:29:11;6.43;;;1.93;;
80836;SDS011;70251;60.008;30.404;2024-01-16T12:31:36;10.13;;;2.58;;
80836;SDS011;70251;60.008;30.404;2024-01-16T12:36:35;8.95;;;2.30;;
80836;SDS011;70251;60.008;30.404;2024-01-16T12:39:01;6.53;;;1.57;;
80836;SDS011;70251;60.008;30.404;2024-01-16T12:41:32;9.93;;;2.60;;
80836;SDS011;70251;60.008;30.404;2024-01-16T12:44:02;12.30;;;2.90;;
80836;SDS011;70251;60.008;30.404;2024-01-16T12:46:28;9.70;;;2.65;;
80836;SDS011;70251;60.008;30.404;2024-01-16T12:48:59;9.30;;;2.00;;
80836;SDS011;70251;60.008;30.404;2024-01-16T12:51:26;8.88;;;2.60;;
80836;SDS011;70251;60.008;30.404;2024-01-16T12:53:52;14.20;;;3.03;;
80836;SDS011;70251;60.008;30.404;2024-01-16T12:56:18;8.23;;;2.07;;
80836;SDS011;70251;60.008;30.404;2024-01-16T12:58:45;10.02;;;2.40;;
80836;SDS011;70251;60.008;30.404;2024-01-16T13:01:21;7.07;;;1.75;;
80836;SDS011;70251;60.008;30.404;2024-01-16T13:03:52;7.50;;;2.13;;
80836;SDS011;70251;60.008;30.404;2024-01-16T13:06:19;10.13;;;2.58;;
80836;SDS011;70251;60.008;30.404;2024-01-16T13:08:49;9.15;;;1.92;;
80836;SDS011;70251;60.008;30.404;2024-01-16T13:11:15;7.25;;;1.83;;
80836;SDS011;70251;60.008;30.404;2024-01-16T13:13:47;8.60;;;2.38;;
80836;SDS011;70251;60.008;30.404;2024-01-16T13:16:16;8.10;;;2.17;;
80836;SDS011;70251;60.008;30.404;2024-01-16T13:18:42;7.10;;;2.10;;
80836;SDS011;70251;60.008;30.404;2024-01-16T13:21:09;9.90;;;2.88;;
80836;SDS011;70251;60.008;30.404;2024-01-16T13:23:35;7.27;;;2.00;;
80836;SDS011;70251;60.008;30.404;2024-01-16T13:26:01;7.25;;;1.67;;
80836;SDS011;70251;60.008;30.404;2024-01-16T13:28:30;6.57;;;2.10;;
80836;SDS011;70251;60.008;30.404;2024-01-16T13:30:56;9.90;;;2.33;;
80836;SDS011;70251;60.008;30.404;2024-01-16T13:33:25;8.27;;;2.13;;
80836;SDS011;70251;60.008;30.404;2024-01-16T13:35:52;7.75;;;1.60;;
80836;SDS011;70251;60.008;30.404;2024-01-16T13:38:19;6.30;;;1.37;;
80836;SDS011;70251;60.008;30.404;2024-01-16T13:40:45;9.18;;;1.73;;
80836;SDS011;70251;60.008;30.404;2024-01-16T13:43:11;6.43;;;1.27;;
80836;SDS011;70251;60.008;30.404;2024-01-16T13:45:37;8.77;;;1.70;;
80836;SDS011;70251;60.008;30.404;2024-01-16T13:48:04;8.88;;;2.10;;
80836;SDS011;70251;60.008;30.404;2024-01-16T13:50:31;7.82;;;2.35;;
80836;SDS011;70251;60.008;30.404;2024-01-16T13:52:58;6.60;;;2.08;;
80836;SDS011;70251;60.008;30.404;2024-01-16T13:55:24;6.50;;;1.77;;
80836;SDS011;70251;60.008;30.404;2024-01-16T13:57:50;11.37;;;2.47;;
80836;SDS011;70251;60.008;30.404;2024-01-16T14:00:16;6.07;;;1.10;;
80836;SDS011;70251;60.008;30.404;2024-01-16T14:02:43;6.80;;;2.10;;
80836;SDS011;70251;60.008;30.404;2024-01-16T14:05:12;9.87;;;2.07;;
80836;SDS011;70251;60.008;30.404;2024-01-16T14:07:47;9.68;;;1.98;;
80836;SDS011;70251;60.008;30.404;2024-01-16T14:10:16;5.93;;;1.52;;
80836;SDS011;70251;60.008;30.404;2024-01-16T14:12:44;10.45;;;2.42;;
80836;SDS011;70251;60.008;30.404;2024-01-16T14:15:11;7.25;;;2.25;;
80836;SDS011;70251;60.008;30.404;2024-01-16T14:17:50;7.67;;;1.60;;
80836;SDS011;70251;60.008;30.404;2024-01-16T14:20:18;8.50;;;1.83;;
80836;SDS011;70251;60.008;30.404;2024-01-16T14:22:58;7.93;;;2.13;;
80836;SDS011;70251;60.008;30.404;2024-01-16T14:25:25;6.53;;;1.67;;
80836;SDS011;70251;60.008;30.404;2024-01-16T14:28:01;9.10;;;2.27;;
80836;SDS011;70251;60.008;30.404;2024-01-16T14:30:28;8.40;;;2.10;;
80836;SDS011;70251;60.008;30.404;2024-01-16T14:32:55;8.05;;;2.40;;
80836;SDS011;70251;60.008;30.404;2024-01-16T14:35:21;7.47;;;2.05;;
80836;SDS011;70251;60.008;30.404;2024-01-16T14:37:52;8.07;;;1.90;;
80836;SDS011;70251;60.008;30.404;2024-01-16T14:40:19;8.10;;;2.17;;